Time;durP1;ratioP1;P1;durP2;ratioP2;P2;SDS_P1;SDS_P2;PMS_P1;PMS_P2;Temp;Humidity;BMP_temperature;BMP_pressure;BME280_temperature;BME280_humidity;BME280_pressure;Samples;Min_cycle;Max_cycle;Signal;HPM_P1;HPM_P2
2021/11/03 00:00:13;;;;;;;8.13;7.33;;;7.50;99.90;;;;;;5049300;28;20478;-71
2021/11/03 00:02:41;;;;;;;7.80;7.00;;;7.50;99.90;;;;;;5048542;28;20178;-71
2021/11/03 00:05:09;;;;;;;9.40;7.80;;;7.50;99.90;;;;;;5048423;28;20466;-71
2021/11/03 00:07:35;;;;;;;11.47;7.83;;;7.50;99.90;;;;;;5048522;28;20387;-71
2021/11/03 00:10:04;;;;;;;9.07;8.17;;;7.60;99.90;;;;;;5048577;28;20766;-71
2021/11/03 00:12:31;;;;;;;9.50;8.50;;;7.50;99.90;;;;;;5048464;28;20179;-71
2021/11/03 00:14:58;;;;;;;9.90;8.13;;;7.60;99.90;;;;;;5048496;28;20405;-71
2021/11/03 00:17:24;;;;;;;9.80;7.33;;;7.60;99.90;;;;;;5048509;28;20473;-71
2021/11/03 00:19:50;;;;;;;9.83;8.93;;;7.60;99.90;;;;;;5048448;28;20489;-72
2021/11/03 00:22:15;;;;;;;8.07;7.37;;;7.60;99.90;;;;;;5048665;28;20408;-72
2021/11/03 00:24:42;;;;;;;9.47;8.30;;;7.60;99.90;;;;;;5048015;28;20214;-70
2021/11/03 00:27:08;;;;;;;11.80;8.40;;;7.60;99.90;;;;;;5048289;28;20174;-71
2021/11/03 00:29:34;;;;;;;10.17;8.53;;;7.50;99.90;;;;;;5047273;28;20886;-71
2021/11/03 00:31:59;;;;;;;10.57;9.53;;;7.50;99.90;;;;;;5047836;28;20477;-71
2021/11/03 00:34:25;;;;;;;8.63;7.77;;;7.50;99.90;;;;;;5048189;28;20521;-71
2021/11/03 00:36:51;;;;;;;9.23;8.33;;;7.50;99.90;;;;;;5036578;28;20536;-71
2021/11/03 00:39:17;;;;;;;10.50;9.50;;;7.40;99.90;;;;;;5034770;28;20168;-71
2021/11/03 00:41:42;;;;;;;11.10;8.97;;;7.40;99.90;;;;;;5034524;28;20418;-71
2021/11/03 00:44:08;;;;;;;10.37;9.40;;;7.30;99.90;;;;;;5035005;28;20220;-71
2021/11/03 00:46:34;;;;;;;10.27;9.27;;;7.30;99.90;;;;;;5034492;28;20175;-71
2021/11/03 00:49:00;;;;;;;9.57;8.57;;;7.30;99.90;;;;;;5034622;28;20244;-71
2021/11/03 00:51:25;;;;;;;9.77;8.77;;;7.30;99.90;;;;;;5034777;28;20175;-70
2021/11/03 00:53:51;;;;;;;11.57;8.80;;;7.30;99.90;;;;;;5034391;28;20777;-71
2021/11/03 00:56:17;;;;;;;10.40;9.30;;;7.30;99.90;;;;;;5034366;28;20159;-71
2021/11/03 00:58:42;;;;;;;10.57;9.57;;;7.30;99.90;;;;;;5034163;28;20298;-71
2021/11/03 01:01:08;;;;;;;13.83;9.80;;;7.20;99.90;;;;;;5034127;28;20688;-71
2021/11/03 01:03:34;;;;;;;15.63;12.10;;;7.20;99.90;;;;;;5034043;28;20182;-71
2021/11/03 01:06:00;;;;;;;13.23;9.97;;;7.20;99.90;;;;;;5034371;28;20925;-71
2021/11/03 01:08:26;;;;;;;13.13;11.70;;;7.20;99.90;;;;;;5034095;28;20391;-71
2021/11/03 01:10:53;;;;;;;11.37;9.80;;;7.20;99.90;;;;;;5034229;28;20172;-70
2021/11/03 01:13:22;;;;;;;11.77;10.13;;;7.20;99.90;;;;;;5034317;28;20399;-71
2021/11/03 01:15:48;;;;;;;11.10;9.83;;;7.20;99.90;;;;;;5034137;28;20400;-71
2021/11/03 01:18:14;;;;;;;11.83;10.60;;;7.20;99.90;;;;;;5033979;28;20486;-70
2021/11/03 01:20:40;;;;;;;11.43;10.23;;;7.20;99.90;;;;;;5034113;28;20544;-71
2021/11/03 01:23:07;;;;;;;12.47;10.60;;;7.20;99.90;;;;;;5033988;28;20888;-71
2021/11/03 01:25:33;;;;;;;11.40;10.30;;;7.10;99.90;;;;;;5033575;28;20203;-71
2021/11/03 01:27:59;;;;;;;15.40;10.13;;;7.10;99.90;;;;;;5033014;28;20428;-71
2021/11/03 01:30:25;;;;;;;11.80;10.00;;;7.10;99.90;;;;;;5033660;28;20403;-71
2021/11/03 01:32:53;;;;;;;12.00;10.50;;;7.10;99.90;;;;;;5033835;28;20153;-71
2021/11/03 01:35:19;;;;;;;14.57;11.60;;;7.10;99.90;;;;;;5033724;28;20417;-70
2021/11/03 01:37:45;;;;;;;17.70;13.60;;;7.00;99.90;;;;;;5033563;28;20544;-71
2021/11/03 01:40:15;;;;;;;24.93;16.53;;;7.00;99.90;;;;;;5033850;28;20180;-71
2021/11/03 01:42:41;;;;;;;26.10;17.37;;;7.00;99.90;;;;;;5033586;28;20764;-70
2021/11/03 01:45:10;;;;;;;20.90;16.57;;;7.00;99.90;;;;;;5033557;28;20438;-71
2021/11/03 01:50:41;;;;;;;13.63;11.50;;;7.00;99.90;;;;;;5069354;28;20514;-72
2021/11/03 01:55:51;;;;;;;12.70;11.33;;;7.00;99.90;;;;;;5053275;28;20535;-71
2021/11/03 01:58:22;;;;;;;10.73;9.60;;;6.90;99.90;;;;;;5045176;28;20787;-71
2021/11/03 02:00:50;;;;;;;13.40;10.90;;;6.90;99.90;;;;;;5029583;28;20444;-72
2021/11/03 02:03:20;;;;;;;15.43;11.47;;;6.90;99.90;;;;;;5029419;28;20385;-71
2021/11/03 02:05:50;;;;;;;11.70;9.80;;;6.90;99.90;;;;;;5029373;28;20463;-71
2021/11/03 02:08:17;;;;;;;10.97;9.57;;;6.90;99.90;;;;;;5045789;28;20414;-71
2021/11/03 02:10:43;;;;;;;10.00;9.10;;;6.90;99.90;;;;;;5049152;28;20418;-71
2021/11/03 02:13:12;;;;;;;11.80;9.70;;;6.90;99.90;;;;;;5048294;28;20448;-71
2021/11/03 02:15:38;;;;;;;11.33;9.80;;;6.90;99.90;;;;;;5049029;28;20448;-71
2021/11/03 02:18:06;;;;;;;11.87;10.67;;;6.90;99.90;;;;;;5048911;28;20826;-72
2021/11/03 02:20:32;;;;;;;10.07;9.07;;;6.90;99.90;;;;;;5029297;28;20844;-71
2021/11/03 02:25:52;;;;;;;11.10;9.50;;;6.90;99.90;;;;;;5109773;27;21491;-71
2021/11/03 02:28:19;;;;;;;10.00;9.00;;;6.90;99.90;;;;;;5105633;28;20831;-71
2021/11/03 02:30:45;;;;;;;9.00;8.03;;;6.90;99.90;;;;;;5102593;28;20434;-72
2021/11/03 02:33:18;;;;;;;8.90;7.80;;;6.90;99.90;;;;;;5109548;28;20414;-71
2021/11/03 02:38:32;;;;;;;11.53;8.30;;;6.90;99.90;;;;;;5130443;27;20526;-71
2021/11/03 02:41:06;;;;;;;10.03;8.50;;;6.90;99.90;;;;;;5130322;28;20382;-71
2021/11/03 02:43:48;;;;;;;10.83;9.00;;;7.00;99.90;;;;;;5130275;28;20377;-70
2021/11/03 02:46:15;;;;;;;9.37;8.47;;;7.00;99.90;;;;;;5118665;28;20396;-70
2021/11/03 02:48:43;;;;;;;10.20;8.20;;;7.00;99.90;;;;;;5109734;28;20458;-71
2021/11/03 02:53:51;;;;;;;9.60;8.20;;;7.00;99.90;;;;;;5069300;28;20660;-71
2021/11/03 02:56:23;;;;;;;10.50;9.40;;;7.00;99.90;;;;;;5069310;28;20424;-71
2021/11/03 02:58:50;;;;;;;10.13;9.00;;;7.10;99.90;;;;;;5058708;28;20488;-72
2021/11/03 03:03:53;;;;;;;10.80;9.60;;;7.10;99.90;;;;;;5052534;28;20526;-69
2021/11/03 03:06:22;;;;;;;10.50;9.40;;;7.00;99.90;;;;;;5049320;28;20378;-71
2021/11/03 03:08:49;;;;;;;11.53;8.50;;;7.00;99.90;;;;;;5049172;28;20154;-71
2021/11/03 03:11:15;;;;;;;12.00;10.07;;;7.00;99.90;;;;;;5049257;28;20402;-71
2021/11/03 03:13:42;;;;;;;10.40;9.40;;;6.90;99.90;;;;;;5049026;28;20481;-72
2021/11/03 03:16:08;;;;;;;12.40;10.10;;;7.00;99.90;;;;;;5048978;28;20398;-72
2021/11/03 03:18:33;;;;;;;10.90;9.80;;;6.90;99.90;;;;;;5048998;28;20468;-71
2021/11/03 03:20:59;;;;;;;11.70;9.83;;;6.90;99.90;;;;;;5048776;28;20444;-72
2021/11/03 03:23:25;;;;;;;12.80;10.47;;;6.90;99.90;;;;;;5048930;28;20236;-72
2021/11/03 03:25:51;;;;;;;11.60;10.40;;;6.90;99.90;;;;;;5049054;28;20151;-72
2021/11/03 03:28:18;;;;;;;11.70;10.10;;;6.80;99.90;;;;;;5043275;28;20175;-72
2021/11/03 03:30:44;;;;;;;13.83;10.47;;;6.80;99.90;;;;;;5038802;28;20946;-72
2021/11/03 03:33:09;;;;;;;10.63;9.50;;;6.80;99.90;;;;;;5048771;28;20947;-72
2021/11/03 03:35:35;;;;;;;11.07;9.90;;;6.80;99.90;;;;;;5049367;28;20404;-72
2021/11/03 03:38:00;;;;;;;10.07;8.87;;;6.80;99.90;;;;;;5048260;28;20688;-72
2021/11/03 03:40:26;;;;;;;12.40;10.00;;;6.80;99.90;;;;;;5048672;28;20620;-72
2021/11/03 03:42:52;;;;;;;10.20;9.13;;;6.80;99.90;;;;;;5048679;28;20195;-72
2021/11/03 03:45:17;;;;;;;11.03;9.50;;;6.80;99.90;;;;;;5048520;28;20163;-72
2021/11/03 03:47:43;;;;;;;10.33;9.33;;;6.80;99.90;;;;;;5048560;28;20164;-72
2021/11/03 03:50:10;;;;;;;11.37;10.10;;;6.80;99.90;;;;;;5048513;28;20160;-72
2021/11/03 03:52:35;;;;;;;11.53;9.57;;;6.80;99.90;;;;;;5048807;28;20509;-72
2021/11/03 03:55:04;;;;;;;10.27;9.27;;;6.80;99.90;;;;;;5048300;28;20422;-70
2021/11/03 03:57:30;;;;;;;10.40;9.23;;;6.80;99.90;;;;;;5048156;28;20221;-70
2021/11/03 03:59:56;;;;;;;10.30;9.30;;;6.80;99.90;;;;;;5029485;28;20806;-70
2021/11/03 04:02:21;;;;;;;10.77;9.43;;;6.90;99.90;;;;;;5028357;28;20294;-70
2021/11/03 04:04:47;;;;;;;11.17;9.20;;;6.90;99.90;;;;;;5028953;28;20221;-70
2021/11/03 04:07:12;;;;;;;11.73;10.30;;;7.00;99.90;;;;;;5038042;28;20263;-70
2021/11/03 04:09:38;;;;;;;10.50;8.63;;;7.00;99.90;;;;;;5048107;28;20188;-70
2021/11/03 04:12:04;;;;;;;11.50;9.83;;;7.00;99.90;;;;;;5047866;28;20558;-70
2021/11/03 04:14:29;;;;;;;10.10;8.67;;;7.10;99.90;;;;;;5039128;28;20808;-71
2021/11/03 04:16:55;;;;;;;9.90;8.83;;;7.10;99.90;;;;;;5034487;28;20438;-70
2021/11/03 04:19:20;;;;;;;10.90;9.50;;;7.10;99.90;;;;;;5034610;28;20170;-70
2021/11/03 04:21:46;;;;;;;12.47;8.90;;;7.10;99.90;;;;;;5034527;28;20641;-70
2021/11/03 04:24:12;;;;;;;10.97;9.27;;;7.10;99.90;;;;;;5034812;28;20532;-70
2021/11/03 04:26:42;;;;;;;8.77;7.87;;;7.20;99.90;;;;;;5035160;28;20194;-70
2021/11/03 04:29:08;;;;;;;9.33;7.80;;;7.20;99.90;;;;;;5029871;28;20437;-70
2021/11/03 04:31:34;;;;;;;9.67;8.73;;;7.20;99.90;;;;;;5033402;28;20424;-70
2021/11/03 04:33:59;;;;;;;10.03;9.00;;;7.20;99.90;;;;;;5034456;28;20854;-70
2021/11/03 04:36:25;;;;;;;8.60;7.73;;;7.20;99.90;;;;;;5034333;28;20577;-70
2021/11/03 04:38:54;;;;;;;10.13;8.97;;;7.20;99.90;;;;;;5034296;28;20161;-70
2021/11/03 04:41:20;;;;;;;9.23;8.10;;;7.20;99.90;;;;;;5034354;28;20182;-70
2021/11/03 04:43:47;;;;;;;8.80;7.50;;;7.20;99.90;;;;;;5030487;28;20520;-70
2021/11/03 04:46:14;;;;;;;8.37;7.53;;;7.20;99.90;;;;;;5029219;28;20174;-70
2021/11/03 04:48:40;;;;;;;9.53;8.17;;;7.30;99.90;;;;;;5027834;28;20476;-70
2021/11/03 04:51:06;;;;;;;8.20;7.17;;;7.30;99.90;;;;;;5029028;28;20784;-70
2021/11/03 04:53:33;;;;;;;10.47;7.57;;;7.30;99.90;;;;;;5030660;28;20422;-70
2021/11/03 04:55:59;;;;;;;10.20;9.17;;;7.30;99.90;;;;;;5032376;28;20191;-70
2021/11/03 04:58:26;;;;;;;9.80;7.37;;;7.30;99.90;;;;;;5029011;28;20437;-70
2021/11/03 05:00:54;;;;;;;11.60;8.73;;;7.30;99.90;;;;;;5026743;28;20451;-70
2021/11/03 05:03:20;;;;;;;7.70;6.90;;;7.30;99.90;;;;;;5030850;28;20591;-70
2021/11/03 05:05:47;;;;;;;10.00;8.60;;;7.30;99.90;;;;;;5032785;28;20992;-70
2021/11/03 05:08:13;;;;;;;9.80;8.60;;;7.30;99.90;;;;;;5028565;28;20525;-70
2021/11/03 05:10:39;;;;;;;10.27;8.03;;;7.30;99.90;;;;;;5028128;28;20465;-70
2021/11/03 05:13:05;;;;;;;8.73;7.63;;;7.20;99.90;;;;;;5021815;28;20463;-70
2021/11/03 05:15:31;;;;;;;9.80;8.80;;;7.20;99.90;;;;;;5027454;28;20450;-70
2021/11/03 05:17:57;;;;;;;11.60;10.17;;;7.20;99.90;;;;;;5026393;28;20595;-70
2021/11/03 05:20:23;;;;;;;11.47;9.60;;;7.10;99.90;;;;;;5022541;28;21036;-70
2021/11/03 05:22:49;;;;;;;10.97;9.87;;;7.10;99.90;;;;;;5032514;28;20544;-70
2021/11/03 05:25:19;;;;;;;11.10;9.33;;;7.10;99.90;;;;;;5028527;28;20258;-70
2021/11/03 05:27:45;;;;;;;12.80;8.83;;;7.10;99.90;;;;;;5024155;28;20454;-70
2021/11/03 05:30:12;;;;;;;11.80;9.50;;;7.10;99.90;;;;;;5015776;28;20480;-70
2021/11/03 05:32:37;;;;;;;10.63;9.20;;;7.10;99.90;;;;;;5022196;28;20414;-70
2021/11/03 05:35:05;;;;;;;11.93;9.50;;;7.10;99.90;;;;;;5023541;28;20426;-71
2021/11/03 05:37:30;;;;;;;12.50;10.00;;;7.20;99.90;;;;;;5025335;28;20183;-70
2021/11/03 05:39:56;;;;;;;10.30;9.20;;;7.20;99.90;;;;;;5026776;28;20418;-70
2021/11/03 05:42:22;;;;;;;11.80;9.73;;;7.20;99.90;;;;;;5023752;28;20209;-70
2021/11/03 05:44:48;;;;;;;13.83;9.27;;;7.30;99.90;;;;;;5019668;28;20175;-70
2021/11/03 05:47:22;;;;;;;9.83;8.83;;;7.30;99.90;;;;;;5023728;28;20743;-70
2021/11/03 05:49:48;;;;;;;11.30;10.10;;;7.30;99.90;;;;;;5020837;28;20430;-70
2021/11/03 05:52:14;;;;;;;10.70;8.67;;;7.30;99.90;;;;;;5020103;28;21034;-71
2021/11/03 05:54:40;;;;;;;11.60;8.57;;;7.30;99.90;;;;;;5029998;28;21006;-71
2021/11/03 05:57:06;;;;;;;11.00;9.33;;;7.30;99.90;;;;;;5030786;28;20199;-72
2021/11/03 05:59:32;;;;;;;10.43;8.70;;;7.30;99.90;;;;;;5024848;28;20201;-70
2021/11/03 06:01:58;;;;;;;12.67;10.00;;;7.30;99.90;;;;;;5023905;28;20478;-70
2021/11/03 06:04:24;;;;;;;9.37;8.40;;;7.40;99.90;;;;;;5017535;28;20430;-71
2021/11/03 06:06:50;;;;;;;11.17;9.97;;;7.30;99.90;;;;;;5024764;28;20430;-70
2021/11/03 06:09:16;;;;;;;11.00;9.60;;;7.30;99.90;;;;;;5023326;28;20427;-70
2021/11/03 06:11:43;;;;;;;12.73;10.37;;;7.30;99.90;;;;;;5026579;28;20441;-70
2021/11/03 06:14:10;;;;;;;13.50;9.70;;;7.30;99.90;;;;;;5030121;28;20660;-70
2021/11/03 06:16:39;;;;;;;10.93;9.80;;;7.30;99.90;;;;;;5027035;28;20435;-70
2021/11/03 06:19:05;;;;;;;12.63;9.97;;;7.30;99.90;;;;;;5026878;28;20533;-70
2021/11/03 06:21:32;;;;;;;12.70;9.83;;;7.30;99.90;;;;;;5023431;28;20911;-70
2021/11/03 06:23:58;;;;;;;10.47;9.40;;;7.30;99.90;;;;;;5027172;28;20318;-70
2021/11/03 06:26:24;;;;;;;11.50;9.33;;;7.30;99.90;;;;;;5028860;28;20427;-71
2021/11/03 06:28:50;;;;;;;12.80;8.33;;;7.40;99.90;;;;;;5029750;28;20425;-71
2021/11/03 06:31:16;;;;;;;11.97;10.67;;;7.40;99.90;;;;;;5028622;28;20516;-71
2021/11/03 06:33:42;;;;;;;10.97;9.83;;;7.40;99.90;;;;;;5030342;28;20857;-71
2021/11/03 06:36:09;;;;;;;12.20;10.10;;;7.40;99.90;;;;;;5023543;28;20603;-71
2021/11/03 06:38:35;;;;;;;10.63;8.60;;;7.40;99.90;;;;;;5022905;28;20559;-72
2021/11/03 06:41:03;;;;;;;10.03;9.00;;;7.40;99.90;;;;;;5027904;28;20431;-71
2021/11/03 06:43:29;;;;;;;12.67;10.13;;;7.40;99.90;;;;;;5026231;28;21113;-71
2021/11/03 06:45:55;;;;;;;9.60;8.53;;;7.40;99.90;;;;;;5028641;28;20517;-71
2021/11/03 06:48:21;;;;;;;10.40;9.37;;;7.40;99.90;;;;;;5026995;28;20567;-72
2021/11/03 06:50:47;;;;;;;12.23;9.80;;;7.40;99.90;;;;;;5020956;28;20461;-71
2021/11/03 06:53:15;;;;;;;10.77;9.40;;;7.50;99.90;;;;;;5026950;28;20434;-72
2021/11/03 06:55:44;;;;;;;10.73;9.63;;;7.40;99.90;;;;;;5027286;28;20187;-72
2021/11/03 06:58:11;;;;;;;11.13;8.13;;;7.50;99.90;;;;;;5026304;28;20433;-72
2021/11/03 07:00:40;;;;;;;11.00;9.63;;;7.50;99.90;;;;;;5026380;28;20576;-72
2021/11/03 07:03:06;;;;;;;12.20;10.50;;;7.50;99.90;;;;;;5026707;28;20640;-72
2021/11/03 07:05:33;;;;;;;11.63;10.47;;;7.50;99.90;;;;;;5026194;28;20944;-72
2021/11/03 07:07:59;;;;;;;10.53;9.00;;;7.50;99.90;;;;;;5028201;28;20852;-72
2021/11/03 07:10:31;;;;;;;11.70;9.77;;;7.60;99.90;;;;;;5025669;28;20442;-72
2021/11/03 07:12:57;;;;;;;13.33;9.90;;;7.60;99.90;;;;;;5017971;28;20184;-72
2021/11/03 07:15:23;;;;;;;12.67;9.63;;;7.60;99.90;;;;;;5022244;28;20463;-72
2021/11/03 07:17:48;;;;;;;10.80;9.70;;;7.60;99.90;;;;;;5018507;28;20446;-72
2021/11/03 07:20:15;;;;;;;10.63;8.90;;;7.60;99.90;;;;;;5020222;28;20459;-72
2021/11/03 07:22:41;;;;;;;12.43;9.10;;;7.70;99.90;;;;;;5015342;28;20520;-72
2021/11/03 07:25:08;;;;;;;10.60;9.40;;;7.70;99.90;;;;;;5021176;28;20439;-72
2021/11/03 07:27:34;;;;;;;13.07;8.83;;;7.70;99.90;;;;;;5027856;28;20172;-72
2021/11/03 07:29:59;;;;;;;11.20;9.10;;;7.70;99.90;;;;;;5026727;28;20433;-72
2021/11/03 07:32:25;;;;;;;10.60;8.80;;;7.70;99.90;;;;;;5029870;28;20191;-72
2021/11/03 07:34:50;;;;;;;9.87;8.20;;;7.70;99.90;;;;;;5029224;28;20572;-72
2021/11/03 07:37:17;;;;;;;10.93;9.43;;;7.70;99.90;;;;;;5028339;28;20607;-72
2021/11/03 07:39:43;;;;;;;11.40;10.20;;;7.80;99.90;;;;;;5021082;28;20649;-72
2021/11/03 07:42:09;;;;;;;10.70;9.60;;;7.80;99.90;;;;;;5029403;28;20450;-72
2021/11/03 07:44:34;;;;;;;11.73;9.43;;;7.80;99.90;;;;;;5029602;28;20422;-72
2021/11/03 07:47:00;;;;;;;11.67;9.03;;;7.90;99.90;;;;;;5025902;28;20437;-72
2021/11/03 07:49:26;;;;;;;11.20;9.50;;;7.90;99.90;;;;;;5027478;28;20180;-72
2021/11/03 07:51:51;;;;;;;10.77;9.63;;;7.90;99.90;;;;;;5031952;28;20333;-72
2021/11/03 07:54:17;;;;;;;12.10;10.20;;;8.00;99.90;;;;;;5030821;28;20179;-72
2021/11/03 07:56:43;;;;;;;11.80;9.17;;;7.90;99.90;;;;;;5026450;28;20196;-72
2021/11/03 07:59:11;;;;;;;12.57;9.80;;;8.00;99.90;;;;;;5019634;28;20203;-72
2021/11/03 08:01:36;;;;;;;14.27;9.97;;;8.00;99.90;;;;;;5026710;28;20423;-72
2021/11/03 08:04:02;;;;;;;12.80;9.43;;;8.00;99.90;;;;;;5028223;28;20637;-72
2021/11/03 08:06:28;;;;;;;13.00;9.07;;;8.00;99.90;;;;;;5026913;28;20179;-72
2021/11/03 08:09:02;;;;;;;16.70;10.63;;;8.00;99.90;;;;;;5029494;28;20652;-72
2021/11/03 08:11:30;;;;;;;12.60;10.27;;;8.00;99.90;;;;;;5026376;28;20418;-72
2021/11/03 08:13:55;;;;;;;12.20;9.30;;;8.10;99.90;;;;;;5021396;28;20522;-72
2021/11/03 08:16:21;;;;;;;17.80;9.80;;;8.10;99.90;;;;;;5026272;28;20548;-72
2021/11/03 08:18:47;;;;;;;12.03;10.30;;;8.10;99.90;;;;;;5028843;28;20565;-72
2021/11/03 08:21:14;;;;;;;12.00;9.83;;;8.10;99.90;;;;;;5026751;28;20183;-71
2021/11/03 08:23:41;;;;;;;14.43;10.30;;;8.10;99.90;;;;;;5031467;28;20992;-71
2021/11/03 08:26:07;;;;;;;14.73;9.80;;;8.20;99.90;;;;;;5032151;28;20450;-71
2021/11/03 08:28:33;;;;;;;16.00;10.30;;;8.20;99.90;;;;;;5028877;28;20514;-71
2021/11/03 08:31:00;;;;;;;12.13;10.40;;;8.20;99.90;;;;;;5029065;28;20423;-71
2021/11/03 08:33:45;;;;;;;14.83;10.83;;;8.30;99.90;;;;;;5027037;28;20531;-71
2021/11/03 08:36:13;;;;;;;13.87;9.53;;;8.30;99.90;;;;;;5028579;28;20428;-72
2021/11/03 08:38:39;;;;;;;12.80;9.83;;;8.30;99.90;;;;;;5024958;28;20479;-71
2021/11/03 08:41:05;;;;;;;13.97;11.40;;;8.30;99.90;;;;;;5025770;28;20523;-71
2021/11/03 08:43:31;;;;;;;16.27;12.23;;;8.40;99.90;;;;;;5035888;28;20615;-72
2021/11/03 08:45:57;;;;;;;11.43;9.67;;;8.40;99.90;;;;;;5024870;28;20426;-71
2021/11/03 08:48:25;;;;;;;14.30;10.77;;;8.40;99.90;;;;;;5029322;28;20800;-71
2021/11/03 08:50:51;;;;;;;13.43;10.50;;;8.40;99.90;;;;;;5026617;28;20180;-72
2021/11/03 08:53:18;;;;;;;14.40;10.93;;;8.50;99.90;;;;;;5026280;28;20836;-72
2021/11/03 08:55:46;;;;;;;13.83;10.93;;;8.50;99.90;;;;;;5033229;28;20451;-72
2021/11/03 08:58:14;;;;;;;13.20;10.70;;;8.50;99.90;;;;;;5028558;28;20436;-72
2021/11/03 09:00:42;;;;;;;12.00;9.90;;;8.60;99.90;;;;;;5020498;28;20431;-72
2021/11/03 09:03:09;;;;;;;12.73;9.97;;;8.60;99.90;;;;;;5033122;28;20462;-71
2021/11/03 09:05:35;;;;;;;13.43;10.67;;;8.60;99.90;;;;;;5037527;28;20430;-72
2021/11/03 09:08:01;;;;;;;12.67;10.20;;;8.70;99.90;;;;;;5025692;28;21029;-72
2021/11/03 09:10:32;;;;;;;12.90;9.93;;;8.70;99.90;;;;;;5024823;28;20427;-72
2021/11/03 09:12:58;;;;;;;14.07;10.63;;;8.70;99.90;;;;;;5021396;28;20432;-72
2021/11/03 09:15:24;;;;;;;11.10;9.50;;;8.70;99.90;;;;;;5031766;28;20421;-72
2021/11/03 09:17:50;;;;;;;14.70;11.30;;;8.70;99.90;;;;;;5027805;28;20181;-72
2021/11/03 09:20:17;;;;;;;12.40;10.50;;;8.70;99.90;;;;;;5023063;28;20909;-72
2021/11/03 09:22:43;;;;;;;17.87;10.70;;;8.70;99.90;;;;;;5025772;28;20205;-72
2021/11/03 09:25:16;;;;;;;15.40;10.03;;;8.70;99.90;;;;;;5026939;28;20428;-72
2021/11/03 09:27:43;;;;;;;11.33;10.13;;;8.70;99.90;;;;;;5024051;28;20444;-72
2021/11/03 09:30:11;;;;;;;12.27;10.93;;;8.70;99.90;;;;;;5028365;28;20781;-72
2021/11/03 09:32:41;;;;;;;13.27;11.97;;;8.80;99.90;;;;;;5022161;28;20436;-72
2021/11/03 09:35:07;;;;;;;12.20;10.90;;;8.90;99.90;;;;;;5029833;28;20436;-72
2021/11/03 09:37:34;;;;;;;13.27;10.43;;;8.90;99.90;;;;;;5027395;28;21075;-72
2021/11/03 09:40:00;;;;;;;11.77;10.57;;;8.90;99.90;;;;;;5031062;28;20463;-72
2021/11/03 09:42:27;;;;;;;11.30;10.10;;;9.00;99.90;;;;;;5026790;28;20491;-72
2021/11/03 09:44:55;;;;;;;12.33;11.07;;;9.00;99.90;;;;;;5026674;28;20700;-72
2021/11/03 09:47:29;;;;;;;11.87;9.27;;;9.10;99.90;;;;;;5023071;28;20422;-72
2021/11/03 09:50:00;;;;;;;10.70;9.10;;;9.10;99.90;;;;;;5022791;28;20493;-72
2021/11/03 09:55:30;;;;;;;12.07;8.97;;;9.20;99.90;;;;;;5098258;27;20540;-71
2021/11/03 10:00:52;;;;;;;11.87;9.87;;;9.30;99.90;;;;;;5095084;27;21082;-71
2021/11/03 10:03:58;;;;;;;9.73;8.80;;;9.40;99.90;;;;;;5079252;28;20467;-71
2021/11/03 10:06:54;;;;;;;13.13;9.50;;;9.50;99.90;;;;;;5065864;28;20523;-72
2021/11/03 10:09:20;;;;;;;10.77;9.67;;;9.50;99.90;;;;;;5077411;28;20433;-71
2021/11/03 10:11:52;;;;;;;10.77;9.40;;;9.50;99.90;;;;;;5086081;28;20418;-73
2021/11/03 10:14:18;;;;;;;9.80;8.80;;;9.50;99.90;;;;;;5079834;28;20285;-72
2021/11/03 10:16:48;;;;;;;10.23;8.70;;;9.50;99.90;;;;;;5076551;28;20830;-71
2021/11/03 10:21:56;;;;;;;9.43;8.20;;;9.50;99.90;;;;;;5042262;28;20537;-72
2021/11/03 10:29:43;;;;;;;10.43;9.10;;;9.50;99.90;;;;;;5059433;28;20528;-73
2021/11/03 10:34:49;;;;;;;12.17;9.57;;;9.50;99.90;;;;;;5003290;28;20550;-71
2021/11/03 10:42:56;;;;;;;11.30;10.17;;;9.70;99.90;;;;;;5084434;27;20606;-72
2021/11/03 10:51:01;;;;;;;12.47;10.37;;;9.70;99.90;;;;;;5124130;27;20613;-71
2021/11/03 11:01:35;;;;;;;10.97;9.87;;;9.70;99.90;;;;;;5121348;27;20528;-71
2021/11/03 11:06:56;;;;;;;11.20;9.80;;;9.70;99.90;;;;;;5101818;27;20830;-70
2021/11/03 11:14:56;;;;;;;13.07;10.30;;;9.60;99.90;;;;;;5066861;27;20544;-72
2021/11/03 11:17:30;;;;;;;12.80;10.20;;;9.50;99.90;;;;;;4982963;28;20457;-73
2021/11/03 11:20:24;;;;;;;11.40;9.23;;;9.50;99.90;;;;;;4987167;28;20532;-71
2021/11/03 11:23:00;;;;;;;10.17;8.90;;;9.50;99.90;;;;;;4988206;28;20806;-73
2021/11/03 11:25:43;;;;;;;11.40;9.90;;;9.40;99.90;;;;;;4987267;28;20997;-70
2021/11/03 11:31:04;;;;;;;13.20;11.37;;;9.40;99.90;;;;;;5068009;28;20574;-74
2021/11/03 11:33:35;;;;;;;11.83;10.60;;;9.30;99.90;;;;;;5034949;27;20434;-71
2021/11/03 11:41:26;;;;;;;14.17;12.00;;;9.30;99.90;;;;;;5061024;28;20517;-72
2021/11/03 11:46:38;;;;;;;15.30;12.23;;;9.20;99.90;;;;;;5102752;27;20584;-72
2021/11/03 11:49:10;;;;;;;15.83;14.13;;;9.20;99.90;;;;;;5081879;28;20431;-71
2021/11/03 11:51:39;;;;;;;13.60;11.90;;;9.20;99.90;;;;;;5072880;28;20428;-71
2021/11/03 11:54:22;;;;;;;14.50;12.33;;;9.20;99.90;;;;;;5080444;28;20412;-71
2021/11/03 12:05:47;;;;;;;18.77;15.13;;;9.10;99.90;;;;;;5038748;28;20538;-71
2021/11/03 12:08:24;;;;;;;19.70;17.30;;;9.00;99.90;;;;;;5041028;28;20445;-72
2021/11/03 12:16:34;;;;;;;17.57;15.00;;;9.00;99.90;;;;;;5093379;27;20529;-71
2021/11/03 12:19:03;;;;;;;18.50;15.67;;;8.90;99.90;;;;;;5068963;28;20432;-71
2021/11/03 12:26:45;;;;;;;19.97;16.93;;;8.90;99.90;;;;;;5044578;28;20676;-71
2021/11/03 12:31:57;;;;;;;22.93;15.80;;;8.80;99.90;;;;;;5056529;28;21068;-71
2021/11/03 12:37:22;;;;;;;17.97;14.80;;;8.80;99.90;;;;;;5066570;28;20531;-71
2021/11/03 12:39:53;;;;;;;20.47;15.43;;;8.70;99.90;;;;;;5064135;28;20922;-71
2021/11/03 12:45:26;;;;;;;22.27;17.20;;;8.70;99.90;;;;;;5067909;28;21079;-71
2021/11/03 12:53:13;;;;;;;20.97;17.47;;;8.60;99.90;;;;;;5060481;28;20540;-71
2021/11/03 12:56:05;;;;;;;21.10;17.70;;;8.60;99.90;;;;;;5066239;28;20451;-71
2021/11/03 13:01:31;;;;;;;21.93;18.30;;;8.60;99.90;;;;;;5051882;28;20538;-72
2021/11/03 13:04:01;;;;;;;21.27;15.87;;;8.60;99.90;;;;;;5023868;28;20478;-71
2021/11/03 13:06:35;;;;;;;21.43;15.77;;;8.50;99.90;;;;;;5014471;28;20967;-71
2021/11/03 13:09:03;;;;;;;21.33;17.67;;;8.50;99.90;;;;;;5007386;28;20438;-72
2021/11/03 13:11:35;;;;;;;21.03;16.60;;;8.50;99.90;;;;;;5010994;28;20519;-72
2021/11/03 13:14:05;;;;;;;21.17;17.60;;;8.50;99.90;;;;;;5005323;28;20441;-72
2021/11/03 13:22:28;;;;;;;18.60;14.33;;;8.50;99.90;;;;;;5123856;27;20531;-73
2021/11/03 13:24:56;;;;;;;21.13;15.47;;;8.40;99.90;;;;;;5106891;28;20423;-72
2021/11/03 13:27:26;;;;;;;22.37;15.77;;;8.40;99.90;;;;;;5107551;28;20427;-72
2021/11/03 13:29:57;;;;;;;21.20;16.90;;;8.40;99.90;;;;;;5107721;28;20416;-72
2021/11/03 13:32:26;;;;;;;21.10;16.83;;;8.40;99.90;;;;;;5107554;28;20444;-73
2021/11/03 13:37:53;;;;;;;19.70;15.33;;;8.50;99.90;;;;;;5067196;28;20653;-72
2021/11/03 13:40:25;;;;;;;22.90;15.70;;;8.40;99.90;;;;;;5044611;28;20434;-72
2021/11/03 13:45:39;;;;;;;20.60;15.90;;;8.40;99.90;;;;;;5047369;28;20995;-71
2021/11/03 13:48:42;;;;;;;20.03;15.57;;;8.40;99.90;;;;;;5053068;28;20410;-71
2021/11/03 13:51:20;;;;;;;19.20;14.67;;;8.30;99.90;;;;;;5052009;28;20467;-71
2021/11/03 13:53:54;;;;;;;16.40;13.90;;;8.40;99.90;;;;;;5052948;28;20455;-71
2021/11/03 13:56:20;;;;;;;19.50;16.60;;;8.40;99.90;;;;;;5050521;28;20502;-71
2021/11/03 13:59:19;;;;;;;19.47;16.13;;;8.40;99.90;;;;;;5048732;28;20521;-71
2021/11/03 14:01:49;;;;;;;23.63;17.80;;;8.40;99.90;;;;;;5052101;28;20473;-72
2021/11/03 14:04:18;;;;;;;18.90;15.63;;;8.40;99.90;;;;;;5047693;28;20889;-70
2021/11/03 14:07:06;;;;;;;25.27;18.50;;;8.40;99.90;;;;;;5049980;28;20441;-70
2021/11/03 14:09:32;;;;;;;23.13;17.30;;;8.40;99.90;;;;;;5037544;28;20550;-71
2021/11/03 14:12:01;;;;;;;22.77;17.07;;;8.40;99.90;;;;;;5043094;28;20429;-70
2021/11/03 14:14:28;;;;;;;23.47;16.83;;;8.40;99.90;;;;;;5040645;28;20455;-72
2021/11/03 14:19:59;;;;;;;25.17;18.33;;;8.40;99.90;;;;;;5100362;27;20893;-70
2021/11/03 14:22:30;;;;;;;23.60;17.77;;;8.40;99.90;;;;;;5090277;28;20458;-70
2021/11/03 14:24:56;;;;;;;20.50;16.27;;;8.30;99.90;;;;;;5085917;28;20510;-72
2021/11/03 14:27:23;;;;;;;20.20;17.30;;;8.30;99.90;;;;;;5087359;28;20442;-71
2021/11/03 14:29:49;;;;;;;21.10;16.20;;;8.30;99.90;;;;;;5084731;28;20482;-71
2021/11/03 14:32:17;;;;;;;18.70;15.27;;;8.30;99.90;;;;;;5081949;28;20472;-71
2021/11/03 14:34:46;;;;;;;18.23;14.73;;;8.30;99.90;;;;;;5093509;28;20192;-71
2021/11/03 14:37:13;;;;;;;19.00;13.60;;;8.30;99.90;;;;;;5092962;28;20777;-70
2021/11/03 14:39:39;;;;;;;17.07;14.23;;;8.20;99.90;;;;;;5089976;28;20474;-71
2021/11/03 14:42:16;;;;;;;;;;;;;;;;;;;;;
2021/11/03 14:44:43;;;;;;;19.87;14.13;;;8.30;99.90;;;;;;5085405;28;20427;-71
2021/11/03 14:47:17;;;;;;;18.63;14.70;;;8.20;99.90;;;;;;5093169;28;20501;-70
2021/11/03 14:49:46;;;;;;;17.77;15.03;;;8.20;99.90;;;;;;5085500;28;20499;-71
2021/11/03 14:54:55;;;;;;;18.20;14.67;;;8.20;99.90;;;;;;5058922;28;21044;-70